createdAt,value
2022-11-01T00:00:21.557Z,28.10
2022-11-01T00:02:47.775Z,31.15
2022-11-01T00:05:14.024Z,29.95
2022-11-01T00:07:40.227Z,27.70
2022-11-01T00:10:06.778Z,24.13
2022-11-01T00:12:33.074Z,32.95
2022-11-01T00:14:59.293Z,33.28
2022-11-01T00:17:25.509Z,23.23
2022-11-01T00:19:51.731Z,28.48
2022-11-01T00:22:17.946Z,28.60
2022-11-01T00:24:44.205Z,31.52
2022-11-01T00:27:10.531Z,28.27
2022-11-01T00:29:36.780Z,32.20
2022-11-01T00:32:03.222Z,26.95
2022-11-01T00:34:29.456Z,26.10
2022-11-01T00:36:55.711Z,22.38
2022-11-01T00:39:21.972Z,29.92
2022-11-01T00:41:48.251Z,26.70
2022-11-01T00:44:14.474Z,23.88
2022-11-01T00:46:40.730Z,30.70
2022-11-01T00:49:06.965Z,27.27
2022-11-01T00:51:33.226Z,26.75
2022-11-01T00:53:59.537Z,28.60
2022-11-01T00:56:25.810Z,22.77
2022-11-01T00:58:52.055Z,22.38
2022-11-01T01:01:18.498Z,24.30
2022-11-01T01:03:44.876Z,29.25
2022-11-01T01:06:11.103Z,23.98
2022-11-01T01:08:37.401Z,26.63
2022-11-01T01:11:03.723Z,25.88
2022-11-01T01:13:29.954Z,26.65
2022-11-01T01:15:57.309Z,35.45
2022-11-01T01:18:23.531Z,30.13
2022-11-01T01:20:49.764Z,27.15
2022-11-01T01:23:15.973Z,28.23
2022-11-01T01:25:43.410Z,29.70
2022-11-01T01:28:10.065Z,30.20
2022-11-01T01:30:39.538Z,27.73
2022-11-01T01:33:05.811Z,32.75
2022-11-01T01:35:32.097Z,28.38
2022-11-01T01:37:58.568Z,29.92
2022-11-01T01:40:24.914Z,27.38
2022-11-01T01:42:51.144Z,29.17
2022-11-01T01:45:29.339Z,23.65
2022-11-01T01:47:57.667Z,28.48
2022-11-01T01:50:23.875Z,28.45
2022-11-01T01:52:50.085Z,29.73
2022-11-01T01:55:18.668Z,33.33
2022-11-01T01:57:45.156Z,33.63
2022-11-01T02:00:12.085Z,40.28
2022-11-01T02:05:08.588Z,23.33
2022-11-01T02:07:34.803Z,25.95
2022-11-01T02:10:01.297Z,25.67
2022-11-01T02:12:33.880Z,24.00
2022-11-01T02:15:00.135Z,33.33
2022-11-01T02:17:30.479Z,26.42
2022-11-01T02:19:56.717Z,31.85
2022-11-01T02:22:50.078Z,27.77
2022-11-01T02:25:19.520Z,28.95
2022-11-01T02:27:54.483Z,24.08
2022-11-01T02:30:21.518Z,30.40
2022-11-01T02:35:19.742Z,33.65
2022-11-01T02:37:54.818Z,31.83
2022-11-01T02:40:26.983Z,29.33
2022-11-01T02:42:55.994Z,29.55
2022-11-01T02:45:29.195Z,46.00
2022-11-01T02:47:58.987Z,27.38
2022-11-01T02:50:27.656Z,37.10
2022-11-01T02:52:54.251Z,34.67
2022-11-01T02:55:30.811Z,36.28
2022-11-01T02:57:59.059Z,36.28
2022-11-01T03:00:33.095Z,36.25
2022-11-01T03:03:02.249Z,39.47
2022-11-01T03:05:46.830Z,32.92
2022-11-01T03:08:16.475Z,37.15
2022-11-01T03:10:48.592Z,35.65
2022-11-01T03:13:28.995Z,39.13
2022-11-01T03:16:18.319Z,36.97
2022-11-01T03:18:50.850Z,35.58
2022-11-01T03:21:21.709Z,43.47
2022-11-01T03:23:56.705Z,35.40
2022-11-01T03:26:27.292Z,32.95
2022-11-01T03:31:31.438Z,38.05
2022-11-01T03:33:59.579Z,39.20
2022-11-01T03:36:29.335Z,35.33
2022-11-01T03:39:01.943Z,31.98
2022-11-01T03:41:29.050Z,39.92
2022-11-01T03:43:55.720Z,41.03
2022-11-01T03:46:22.116Z,34.83
2022-11-01T03:48:48.325Z,43.50
2022-11-01T03:51:14.555Z,36.70
2022-11-01T03:53:40.774Z,39.85
2022-11-01T03:56:07.403Z,33.80
2022-11-01T03:58:44.155Z,38.90
2022-11-01T04:01:12.038Z,32.60
2022-11-01T04:03:38.322Z,35.30
2022-11-01T04:06:05.115Z,35.75
2022-11-01T04:08:31.873Z,29.98
2022-11-01T04:10:58.507Z,35.00
2022-11-01T04:13:24.866Z,36.15
2022-11-01T04:16:09.717Z,37.80
2022-11-01T04:18:54.550Z,33.53
2022-11-01T04:21:23.167Z,38.35
2022-11-01T04:23:49.413Z,33.17
2022-11-01T04:26:24.722Z,31.92
2022-11-01T04:28:57.370Z,32.42
2022-11-01T04:31:34.953Z,43.40
2022-11-01T04:34:02.148Z,30.95
2022-11-01T04:36:28.699Z,38.13
2022-11-01T04:38:56.263Z,34.22
2022-11-01T04:41:23.571Z,34.33
2022-11-01T04:43:51.942Z,31.83
2022-11-01T04:46:18.182Z,37.85
2022-11-01T04:48:44.463Z,34.00
2022-11-01T04:51:11.018Z,26.75
2022-11-01T04:53:37.556Z,29.15
2022-11-01T04:56:04.811Z,25.80
2022-11-01T04:58:31.292Z,24.30
2022-11-01T05:00:57.704Z,21.95
2022-11-01T05:03:23.998Z,23.65
2022-11-01T05:05:50.274Z,26.92
2022-11-01T05:08:16.531Z,25.30
2022-11-01T05:10:43.819Z,26.60
2022-11-01T05:13:10.964Z,26.33
2022-11-01T05:15:40.035Z,24.85
2022-11-01T05:18:06.587Z,22.17
2022-11-01T05:20:32.908Z,27.45
2022-11-01T05:23:02.734Z,27.60
2022-11-01T05:25:31.446Z,20.55
2022-11-01T05:28:07.948Z,24.40
2022-11-01T05:30:35.236Z,27.35
2022-11-01T05:33:02.174Z,24.33
2022-11-01T05:37:55.017Z,19.67
2022-11-01T05:40:21.564Z,23.23
2022-11-01T05:42:47.991Z,29.23
2022-11-01T05:45:14.262Z,26.90
2022-11-01T05:47:40.539Z,23.88
2022-11-01T05:50:10.745Z,21.55
2022-11-01T05:52:37.072Z,21.75
2022-11-01T05:55:03.520Z,23.98
2022-11-01T05:57:33.444Z,18.23
2022-11-01T05:59:59.974Z,17.75
2022-11-01T06:02:26.270Z,28.17
2022-11-01T06:04:52.582Z,17.27
2022-11-01T06:07:18.811Z,33.00
2022-11-01T06:09:45.086Z,19.77
2022-11-01T06:12:11.300Z,19.88
2022-11-01T06:14:37.548Z,19.75
2022-11-01T06:17:03.759Z,16.38
2022-11-01T06:19:30.005Z,15.95
2022-11-01T06:21:56.214Z,23.17
2022-11-01T06:24:22.474Z,16.50
2022-11-01T06:26:48.735Z,21.40
2022-11-01T06:29:15.059Z,28.10
2022-11-01T06:31:41.327Z,16.65
2022-11-01T06:34:07.595Z,20.90
2022-11-01T06:36:33.844Z,19.42
2022-11-01T06:39:00.136Z,20.63
2022-11-01T06:41:26.388Z,18.67
2022-11-01T06:43:52.824Z,17.02
2022-11-01T06:46:19.055Z,26.02
2022-11-01T06:48:47.120Z,15.95
2022-11-01T06:51:13.339Z,15.20
2022-11-01T06:53:39.570Z,17.02
2022-11-01T06:56:06.338Z,18.60
2022-11-01T06:58:32.591Z,18.27
2022-11-01T07:01:00.757Z,18.20
2022-11-01T07:03:26.986Z,13.65
2022-11-01T07:05:53.295Z,22.60
2022-11-01T07:08:19.527Z,17.98
2022-11-01T07:10:45.753Z,14.95
2022-11-01T07:13:12.911Z,19.38
2022-11-01T07:15:39.457Z,18.23
2022-11-01T07:18:06.707Z,14.52
2022-11-01T07:20:41.417Z,15.45
2022-11-01T07:23:12.584Z,15.82
2022-11-01T07:25:39.051Z,15.23
2022-11-01T07:28:05.732Z,10.55
2022-11-01T07:30:32.073Z,16.17
2022-11-01T07:32:59.460Z,15.68
2022-11-01T07:35:26.038Z,14.77
2022-11-01T07:37:52.501Z,22.13
2022-11-01T07:40:18.995Z,16.17
2022-11-01T07:42:45.415Z,10.30
2022-11-01T07:45:13.217Z,11.32
2022-11-01T07:47:39.742Z,15.18
2022-11-01T07:50:06.239Z,14.65
2022-11-01T07:52:32.589Z,11.48
2022-11-01T07:54:58.900Z,16.00
2022-11-01T07:57:25.117Z,9.98
2022-11-01T07:59:51.360Z,13.05
2022-11-01T08:02:17.719Z,10.85
2022-11-01T08:04:44.038Z,8.82
2022-11-01T08:07:10.379Z,8.32
2022-11-01T08:09:36.608Z,7.82
2022-11-01T08:12:02.823Z,8.05
2022-11-01T08:14:29.075Z,19.33
2022-11-01T08:17:01.511Z,12.68
2022-11-01T08:19:27.781Z,14.85
2022-11-01T08:21:56.672Z,12.75
2022-11-01T08:24:22.909Z,13.35
2022-11-01T08:26:49.126Z,12.13
2022-11-01T08:29:15.396Z,12.02
2022-11-01T08:31:41.724Z,14.88
2022-11-01T08:34:08.726Z,10.63
2022-11-01T08:36:37.106Z,8.48
2022-11-01T08:39:03.495Z,7.82
2022-11-01T08:41:29.821Z,12.63
2022-11-01T08:43:57.335Z,5.35
2022-11-01T08:46:23.691Z,11.43
2022-11-01T08:48:52.327Z,10.98
2022-11-01T08:51:25.613Z,6.50
2022-11-01T08:53:54.671Z,7.38
2022-11-01T08:56:21.791Z,10.00
2022-11-01T08:58:52.208Z,10.18
2022-11-01T09:01:18.812Z,6.22
2022-11-01T09:03:45.200Z,9.80
2022-11-01T09:06:11.508Z,5.70
2022-11-01T09:08:37.808Z,8.73
2022-11-01T09:11:06.269Z,6.03
2022-11-01T09:13:33.086Z,7.63
2022-11-01T09:16:02.225Z,5.45
2022-11-01T09:18:28.908Z,3.85
2022-11-01T09:20:55.634Z,5.10
2022-11-01T09:23:22.018Z,8.45
2022-11-01T09:25:48.310Z,8.20
2022-11-01T09:28:14.767Z,7.55
2022-11-01T09:30:49.677Z,4.90
2022-11-01T09:33:23.547Z,8.60
2022-11-01T09:35:53.072Z,7.68
2022-11-01T09:38:23.485Z,8.38
2022-11-01T09:40:53.739Z,4.72
2022-11-01T09:43:21.396Z,6.95
2022-11-01T09:45:48.814Z,10.10
2022-11-01T09:48:15.351Z,3.65
2022-11-01T09:50:43.747Z,5.47
2022-11-01T09:53:14.331Z,6.82
2022-11-01T09:55:48.303Z,7.78
2022-11-01T09:58:30.094Z,4.78
2022-11-01T10:01:15.365Z,6.93
2022-11-01T10:03:41.808Z,8.85
2022-11-01T10:06:15.337Z,7.50
2022-11-01T10:09:01.163Z,7.40
2022-11-01T10:11:46.002Z,9.95
2022-11-01T10:14:24.122Z,11.75
2022-11-01T10:17:09.906Z,6.30
2022-11-01T10:19:37.041Z,11.48
2022-11-01T10:22:11.874Z,13.77
2022-11-01T10:24:40.497Z,7.75
2022-11-01T10:27:09.726Z,7.95
2022-11-01T10:29:54.941Z,7.85
2022-11-01T10:32:30.503Z,8.38
2022-11-01T10:35:00.506Z,10.02
2022-11-01T10:37:47.285Z,8.13
2022-11-01T10:40:25.742Z,3.72
2022-11-01T10:42:52.467Z,5.07
2022-11-01T10:45:19.270Z,7.47
2022-11-01T10:50:12.454Z,4.88
2022-11-01T10:52:41.744Z,4.85
2022-11-01T10:55:11.657Z,10.35
2022-11-01T10:57:41.714Z,2.97
2022-11-01T11:00:14.032Z,8.30
2022-11-01T11:02:42.869Z,3.70
2022-11-01T11:05:13.354Z,6.97
2022-11-01T11:07:39.634Z,5.72
2022-11-01T11:10:15.417Z,4.97
2022-11-01T11:12:43.947Z,4.95
2022-11-01T11:17:43.452Z,4.55
2022-11-01T11:20:10.638Z,4.35
2022-11-01T11:22:39.710Z,4.10
2022-11-01T11:25:06.374Z,3.85
2022-11-01T11:27:34.058Z,3.53
2022-11-01T11:30:01.951Z,6.53
2022-11-01T11:32:29.619Z,6.97
2022-11-01T11:34:58.942Z,4.32
2022-11-01T11:37:28.077Z,5.43
2022-11-01T11:40:17.560Z,5.45
2022-11-01T11:42:44.493Z,5.38
2022-11-01T11:45:23.033Z,4.80
2022-11-01T11:47:49.634Z,22.27
2022-11-01T11:50:15.895Z,21.05
2022-11-01T11:55:27.599Z,14.40
2022-11-01T11:57:54.844Z,23.52
2022-11-01T12:00:23.043Z,34.00
2022-11-01T12:02:49.953Z,15.75
2022-11-01T12:05:20.135Z,14.15
2022-11-01T12:07:51.005Z,29.13
2022-11-01T12:10:46.753Z,19.92
2022-11-01T12:13:41.124Z,21.38
2022-11-01T12:16:07.544Z,5.85
2022-11-01T12:18:33.790Z,10.10
2022-11-01T12:23:33.336Z,18.02
2022-11-01T12:26:00.429Z,11.68
2022-11-01T12:28:33.898Z,6.13
2022-11-01T12:31:05.486Z,5.82
2022-11-01T12:33:52.012Z,5.68
2022-11-01T12:36:21.336Z,5.93
2022-11-01T12:38:50.427Z,4.75
2022-11-01T12:41:22.699Z,29.00
2022-11-01T12:43:52.845Z,9.77
2022-11-01T12:46:23.499Z,9.52
2022-11-01T12:48:56.071Z,17.38
2022-11-01T12:51:26.101Z,9.48
2022-11-01T12:53:52.536Z,8.60
2022-11-01T12:56:18.940Z,10.23
2022-11-01T12:58:45.195Z,4.95
2022-11-01T13:01:30.378Z,6.10
2022-11-01T13:04:05.984Z,4.72
2022-11-01T13:06:50.937Z,10.43
2022-11-01T13:09:25.916Z,3.70
2022-11-01T13:11:52.159Z,8.30
2022-11-01T13:14:18.368Z,7.07
2022-11-01T13:16:48.520Z,7.85
2022-11-01T13:19:28.246Z,9.07
2022-11-01T13:22:01.398Z,14.80
2022-11-01T13:24:30.405Z,21.35
2022-11-01T13:27:00.701Z,5.40
2022-11-01T13:29:26.912Z,12.27
2022-11-01T13:31:57.298Z,8.25
2022-11-01T13:34:45.951Z,7.03
2022-11-01T13:37:24.561Z,7.13
2022-11-01T13:40:01.621Z,5.20
2022-11-01T13:42:35.695Z,3.92
2022-11-01T13:45:26.471Z,6.13
2022-11-01T13:47:56.831Z,8.43
2022-11-01T13:50:41.681Z,5.43
2022-11-01T13:53:11.206Z,7.18
2022-11-01T13:55:39.574Z,6.70
2022-11-01T13:58:06.770Z,6.10
2022-11-01T14:00:38.642Z,7.28
2022-11-01T14:03:29.511Z,5.60
2022-11-01T14:06:07.837Z,7.68
2022-11-01T14:08:44.132Z,5.63
2022-11-01T14:11:11.534Z,9.57
2022-11-01T14:13:40.050Z,11.90
2022-11-01T14:16:15.532Z,22.27
2022-11-01T14:19:02.473Z,10.85
2022-11-01T14:21:32.106Z,4.55
2022-11-01T14:23:59.116Z,23.65
2022-11-01T14:26:33.803Z,13.75
2022-11-01T14:29:02.311Z,17.35
2022-11-01T14:31:31.854Z,26.88
2022-11-01T14:34:00.538Z,16.70
2022-11-01T14:36:28.494Z,12.00
2022-11-01T14:39:00.344Z,61.00
2022-11-01T14:41:27.301Z,31.77
2022-11-01T14:46:27.704Z,10.90
2022-11-01T14:49:04.331Z,13.20
2022-11-01T14:51:40.452Z,16.17
2022-11-01T14:54:13.392Z,44.60
2022-11-01T14:56:41.307Z,15.35
2022-11-01T14:59:21.201Z,38.88
2022-11-01T15:01:50.804Z,39.30
2022-11-01T15:04:24.678Z,5.57
2022-11-01T15:06:51.357Z,24.38
2022-11-01T15:09:22.141Z,16.38
2022-11-01T15:11:49.612Z,35.72
2022-11-01T15:14:20.462Z,36.80
2022-11-01T15:16:46.744Z,31.17
2022-11-01T15:19:15.721Z,8.20
2022-11-01T15:21:46.925Z,17.75
2022-11-01T15:24:24.313Z,7.70
2022-11-01T15:26:50.683Z,8.57
2022-11-01T15:29:18.267Z,5.50
2022-11-01T15:31:50.467Z,4.65
2022-11-01T15:34:21.612Z,6.88
2022-11-01T15:36:47.891Z,11.00
2022-11-01T15:39:21.468Z,4.97
2022-11-01T15:41:48.429Z,15.40
2022-11-01T15:46:41.792Z,9.18
2022-11-01T15:49:09.341Z,13.50
2022-11-01T15:51:37.360Z,13.23
2022-11-01T15:54:05.754Z,9.05
2022-11-01T15:56:42.191Z,6.63
2022-11-01T15:59:20.628Z,5.82
2022-11-01T16:01:48.474Z,8.25
2022-11-01T16:04:16.281Z,7.13
2022-11-01T16:06:45.270Z,10.05
2022-11-01T16:09:18.070Z,8.10
2022-11-01T16:11:44.621Z,9.63
2022-11-01T16:14:19.654Z,5.18
2022-11-01T16:17:18.112Z,6.40
2022-11-01T16:19:48.020Z,8.40
2022-11-01T16:22:27.719Z,10.25
2022-11-01T16:25:23.941Z,55.72
2022-11-01T16:28:00.480Z,44.88
2022-11-01T16:30:34.513Z,19.83
2022-11-01T16:33:19.731Z,27.42
2022-11-01T16:35:47.147Z,20.15
2022-11-01T16:38:25.497Z,19.98
2022-11-01T16:41:01.904Z,22.80
2022-11-01T16:43:29.905Z,55.53
2022-11-01T16:45:56.837Z,9.02
2022-11-01T16:50:49.279Z,12.98
2022-11-01T16:53:15.510Z,8.05
2022-11-01T16:55:41.823Z,15.77
2022-11-01T16:58:15.080Z,9.32
2022-11-01T17:00:51.324Z,12.30
2022-11-01T17:03:17.780Z,12.18
2022-11-01T17:05:44.181Z,11.98
2022-11-01T17:08:14.116Z,14.85
2022-11-01T17:10:40.362Z,12.07
2022-11-01T17:13:07.854Z,15.95
2022-11-01T17:15:37.440Z,12.02
2022-11-01T17:18:06.148Z,10.13
2022-11-01T17:20:32.567Z,14.75
2022-11-01T17:22:58.826Z,11.85
2022-11-01T17:25:27.238Z,13.85
2022-11-01T17:27:53.468Z,12.05
2022-11-01T17:30:19.882Z,10.57
2022-11-01T17:32:46.479Z,13.93
2022-11-01T17:35:12.732Z,23.38
2022-11-01T17:37:39.693Z,8.30
2022-11-01T17:42:32.116Z,13.25
2022-11-01T17:44:58.412Z,12.77
2022-11-01T17:47:25.033Z,22.63
2022-11-01T17:49:51.451Z,9.75
2022-11-01T17:52:17.732Z,10.80
2022-11-01T17:54:44.084Z,20.52
2022-11-01T17:57:10.308Z,13.50
2022-11-01T17:59:36.560Z,12.07
2022-11-01T18:02:03.385Z,16.70
2022-11-01T18:07:03.018Z,18.95
2022-11-01T18:09:29.728Z,18.88
2022-11-01T18:12:08.755Z,20.55
2022-11-01T18:14:43.896Z,30.27
2022-11-01T18:17:25.935Z,22.70
2022-11-01T18:20:10.754Z,12.65
2022-11-01T18:22:51.066Z,6.55
2022-11-01T18:25:24.159Z,11.55
2022-11-01T18:27:50.669Z,8.73
2022-11-01T18:30:18.178Z,12.57
2022-11-01T18:32:47.436Z,16.52
2022-11-01T18:35:32.827Z,11.43
2022-11-01T18:38:22.154Z,12.48
2022-11-01T18:40:57.347Z,10.55
2022-11-01T18:43:24.193Z,12.45
2022-11-01T18:46:22.878Z,9.98
2022-11-01T18:48:37.388Z,12.80
2022-11-01T18:51:08.659Z,12.75
2022-11-01T18:53:35.086Z,12.38
2022-11-01T18:56:21.708Z,16.10
2022-11-01T18:58:48.758Z,10.00
2022-11-01T19:03:42.143Z,11.93
2022-11-01T19:08:35.436Z,7.30
2022-11-01T19:11:02.333Z,12.60
2022-11-01T19:13:31.406Z,7.30
2022-11-01T19:16:00.312Z,7.95
2022-11-01T19:18:26.591Z,11.40
2022-11-01T19:20:54.022Z,21.13
2022-11-01T19:23:36.434Z,21.85
2022-11-01T19:26:03.565Z,10.90
2022-11-01T19:28:35.300Z,11.95
2022-11-01T19:31:07.185Z,14.60
2022-11-01T19:33:37.131Z,9.10
2022-11-01T19:36:05.286Z,11.02
2022-11-01T19:38:31.495Z,12.77
2022-11-01T19:40:57.772Z,10.13
2022-11-01T19:43:25.378Z,10.98
2022-11-01T19:45:56.234Z,12.95
2022-11-01T19:48:23.593Z,14.63
2022-11-01T19:50:49.863Z,13.57
2022-11-01T19:53:22.020Z,8.75
2022-11-01T19:55:52.742Z,25.45
2022-11-01T19:58:27.876Z,28.10
2022-11-01T20:01:04.252Z,17.33
2022-11-01T20:03:33.529Z,14.52
2022-11-01T20:05:59.759Z,12.63
2022-11-01T20:08:30.676Z,11.60
2022-11-01T20:10:56.889Z,16.60
2022-11-01T20:13:23.089Z,18.42
2022-11-01T20:15:49.515Z,13.10
2022-11-01T20:18:16.293Z,12.25
2022-11-01T20:20:43.798Z,11.27
2022-11-01T20:23:25.811Z,8.07
2022-11-01T20:25:53.079Z,15.52
2022-11-01T20:28:19.355Z,16.60
2022-11-01T20:30:45.751Z,15.73
2022-11-01T20:33:13.182Z,10.05
2022-11-01T20:35:39.470Z,10.02
2022-11-01T20:38:05.750Z,7.15
2022-11-01T20:40:32.143Z,11.07
2022-11-01T20:42:58.471Z,15.65
2022-11-01T20:45:24.719Z,6.82
2022-11-01T20:47:54.028Z,9.82
2022-11-01T20:50:20.336Z,8.18
2022-11-01T20:52:46.649Z,9.50
2022-11-01T20:55:13.042Z,10.80
2022-11-01T20:57:39.309Z,13.38
2022-11-01T21:00:06.061Z,13.13
2022-11-01T21:02:32.724Z,11.02
2022-11-01T21:05:09.903Z,10.00
2022-11-01T21:07:36.177Z,7.90
2022-11-01T21:10:02.413Z,10.90
2022-11-01T21:12:40.556Z,19.30
2022-11-01T21:15:23.547Z,10.60
2022-11-01T21:18:10.047Z,11.75
2022-11-01T21:20:40.511Z,8.15
2022-11-01T21:23:32.233Z,7.72
2022-11-01T21:26:02.250Z,19.60
2022-11-01T21:28:32.707Z,29.30
2022-11-01T21:31:10.912Z,38.70
2022-11-01T21:33:38.672Z,47.67
2022-11-01T21:36:14.060Z,62.67
2022-11-01T21:38:41.151Z,73.95
2022-11-01T21:41:23.145Z,67.97
2022-11-01T21:43:49.395Z,54.78
2022-11-01T21:46:16.868Z,70.97
2022-11-01T21:48:44.333Z,95.75
2022-11-01T21:51:10.597Z,28.40
2022-11-01T21:53:37.368Z,21.70
2022-11-01T21:56:03.836Z,21.40
2022-11-01T21:58:30.160Z,10.25
2022-11-01T22:00:56.509Z,7.45
2022-11-01T22:03:22.809Z,6.47
2022-11-01T22:05:49.075Z,13.52
2022-11-01T22:08:15.328Z,9.05
2022-11-01T22:10:41.574Z,6.07
2022-11-01T22:13:08.093Z,12.30
2022-11-01T22:15:34.711Z,10.52
2022-11-01T22:18:00.992Z,11.90
2022-11-01T22:20:27.253Z,10.80
2022-11-01T22:22:53.749Z,15.07
2022-11-01T22:25:19.995Z,5.47
2022-11-01T22:27:46.358Z,9.80
2022-11-01T22:30:12.736Z,10.82
2022-11-01T22:32:39.019Z,11.25
2022-11-01T22:35:05.491Z,5.20
2022-11-01T22:37:33.940Z,10.70
2022-11-01T22:40:00.168Z,17.17
2022-11-01T22:42:27.185Z,6.15
2022-11-01T22:47:27.209Z,16.48
2022-11-01T22:49:54.617Z,8.45
2022-11-01T22:52:29.472Z,9.07
2022-11-01T22:55:07.771Z,12.32
2022-11-01T22:57:36.082Z,12.57
2022-11-01T23:00:20.958Z,7.05
2022-11-01T23:02:47.743Z,8.32
2022-11-01T23:05:14.043Z,9.00
2022-11-01T23:07:47.709Z,10.38
2022-11-01T23:10:21.897Z,9.48
2022-11-01T23:13:07.943Z,13.27
2022-11-01T23:15:34.168Z,12.82
2022-11-01T23:18:02.086Z,8.43
2022-11-01T23:20:29.786Z,10.93
2022-11-01T23:22:56.287Z,9.65
2022-11-01T23:25:22.571Z,10.40
2022-11-01T23:27:49.059Z,9.43
2022-11-01T23:30:15.332Z,6.55
2022-11-01T23:32:42.427Z,9.27
2022-11-01T23:35:14.024Z,10.57
2022-11-01T23:37:40.832Z,10.95
2022-11-01T23:40:15.071Z,9.15
2022-11-01T23:42:42.153Z,8.30
2022-11-01T23:45:16.115Z,12.30
2022-11-01T23:47:42.382Z,9.73
2022-11-01T23:50:16.141Z,7.55
2022-11-01T23:52:52.927Z,6.70
2022-11-01T23:55:25.604Z,18.85
2022-11-01T23:57:55.717Z,10.02
